Time;durP1;ratioP1;P1;durP2;ratioP2;P2;SDS_P1;SDS_P2;PMS_P1;PMS_P2;Temp;Humidity;BMP_temperature;BMP_pressure;BME280_temperature;BME280_humidity;BME280_pressure;Samples;Min_cycle;Max_cycle;Signal;HPM_P1;HPM_P2
2024/04/03 00:02:26;;;;;;;1.15;0.62;;;;;;;20.95;44.91;99805.02;2318963;76;50740;-82
2024/04/03 00:05:28;;;;;;;0.98;0.60;;;;;;;20.95;44.93;99794.78;2316962;76;50229;-83
2024/04/03 00:08:30;;;;;;;0.80;0.60;;;;;;;20.94;44.89;99792.63;2292652;76;50076;-83
2024/04/03 00:11:32;;;;;;;0.50;0.50;;;;;;;20.94;44.88;99798.00;2316995;76;50358;-84
2024/04/03 00:14:35;;;;;;;0.98;0.70;;;;;;;20.94;44.94;99792.63;2291989;76;49997;-85
2024/04/03 00:17:37;;;;;;;1.07;0.60;;;;;;;20.95;44.88;99789.41;2317824;75;51553;-84
2024/04/03 00:20:39;;;;;;;0.93;0.50;;;;;;;20.94;44.93;99787.77;2316034;76;50960;-84
2024/04/03 00:23:41;;;;;;;0.70;0.70;;;;;;;20.96;44.82;99783.82;2292058;76;50998;-84
2024/04/03 00:26:43;;;;;;;0.98;0.72;;;;;;;20.95;44.96;99784.03;2316106;76;50750;-84
2024/04/03 00:29:48;;;;;;;0.72;0.60;;;;;;;20.97;44.86;99792.70;2316644;76;50790;-84
2024/04/03 00:32:50;;;;;;;1.05;0.60;;;;;;;20.95;44.92;99790.22;2286890;74;50088;-82
2024/04/03 00:36:00;;;;;;;0.93;0.70;;;;;;;20.95;44.92;99786.19;2318907;74;51606;-83
2024/04/03 00:39:02;;;;;;;0.40;0.40;;;;;;;20.95;44.89;99788.06;2315282;74;50185;-84
2024/04/03 00:42:05;;;;;;;0.88;0.60;;;;;;;20.97;44.80;99793.52;2297024;75;50681;-84
2024/04/03 00:45:07;;;;;;;0.82;0.68;;;;;;;20.96;44.91;99785.66;2293443;76;50625;-83
2024/04/03 00:48:09;;;;;;;0.57;0.57;;;;;;;20.97;44.82;99790.83;2286164;76;50990;-83
2024/04/03 00:51:11;;;;;;;0.68;0.47;;;;;;;20.96;44.92;99795.92;2317197;76;51498;-84
2024/04/03 00:54:14;;;;;;;0.60;0.60;;;;;;;20.97;44.83;99785.45;2317087;76;50394;-84
2024/04/03 00:57:16;;;;;;;0.57;0.57;;;;;;;20.95;44.94;99784.84;2291476;76;51403;-84
2024/04/03 01:00:18;;;;;;;0.62;0.60;;;;;;;20.95;44.95;99782.16;2316988;76;50768;-84
2024/04/03 01:03:20;;;;;;;0.90;0.70;;;;;;;20.95;44.94;99783.50;2285747;76;49703;-83
2024/04/03 01:06:22;;;;;;;1.02;0.50;;;;;;;20.96;44.94;99780.28;2292293;76;50110;-84
2024/04/03 01:09:25;;;;;;;0.72;0.50;;;;;;;20.96;44.94;99785.66;2316764;76;50671;-83
2024/04/03 01:12:32;;;;;;;0.98;0.78;;;;;;;20.95;44.92;99775.44;2292326;76;49891;-85
2024/04/03 01:15:31;;;;;;;1.00;0.53;;;;;;;20.95;44.94;99770.05;2315953;76;22295;-85
2024/04/03 01:18:33;;;;;;;1.15;0.68;;;;;;;20.95;44.95;99775.44;2316138;76;51532;-84
2024/04/03 01:21:35;;;;;;;0.85;0.68;;;;;;;20.94;44.94;99765.73;2316571;76;51532;-83
2024/04/03 01:24:37;;;;;;;0.98;0.60;;;;;;;20.95;44.88;99772.74;2316722;76;51518;-83
2024/04/03 01:27:39;;;;;;;0.60;0.60;;;;;;;20.96;44.95;99776.25;2292330;76;51014;-85
2024/04/03 01:30:42;;;;;;;0.85;0.62;;;;;;;20.94;44.94;99773.80;2316707;76;50695;-83
2024/04/03 01:33:44;;;;;;;0.70;0.70;;;;;;;20.94;44.93;99775.14;2316807;76;50917;-83
2024/04/03 01:36:46;;;;;;;1.10;0.50;;;;;;;20.94;44.96;99773.80;2292252;76;49634;-84
2024/04/03 01:39:48;;;;;;;0.68;0.65;;;;;;;20.94;45.00;99766.26;2316764;76;50802;-85
2024/04/03 01:42:51;;;;;;;1.90;0.80;;;;;;;20.94;44.98;99764.39;2316836;76;49739;-84
2024/04/03 01:45:59;;;;;;;0.50;0.45;;;;;;;20.95;44.97;99769.23;2316255;76;50083;-85
2024/04/03 01:49:02;;;;;;;0.82;0.70;;;;;;;20.94;45.00;99771.64;2291532;76;50779;-85
2024/04/03 01:52:04;;;;;;;0.53;0.53;;;;;;;20.95;44.97;99755.27;2316694;76;51458;-85
2024/04/03 01:55:06;;;;;;;0.85;0.53;;;;;;;20.94;44.98;99756.32;2291760;76;50246;-84
2024/04/03 01:58:09;;;;;;;0.82;0.47;;;;;;;20.94;44.99;99756.84;2292252;76;50929;-85
2024/04/03 02:01:11;;;;;;;0.85;0.50;;;;;;;20.94;45.00;99756.32;2292558;76;50157;-85
2024/04/03 02:04:13;;;;;;;1.32;0.60;;;;;;;20.93;44.98;99751.97;2316694;76;50786;-83
2024/04/03 02:07:15;;;;;;;1.22;0.65;;;;;;;20.93;45.01;99760.03;2316628;76;50848;-85
2024/04/03 02:10:17;;;;;;;0.98;0.70;;;;;;;20.94;44.98;99756.84;2316642;76;50398;-85
2024/04/03 02:13:19;;;;;;;0.98;0.65;;;;;;;20.94;45.03;99757.66;2316809;76;50687;-85
2024/04/03 02:16:22;;;;;;;0.93;0.53;;;;;;;20.94;45.03;99758.19;2292300;76;50126;-84
2024/04/03 02:19:24;;;;;;;1.02;0.78;;;;;;;20.94;45.03;99752.28;2292825;76;50784;-84
2024/04/03 02:22:26;;;;;;;0.65;0.60;;;;;;;20.94;45.01;99748.25;2318729;76;50949;-82
2024/04/03 02:25:28;;;;;;;0.57;0.55;;;;;;;20.95;45.01;99750.41;2292702;76;50061;-85
2024/04/03 02:28:30;;;;;;;0.55;0.55;;;;;;;20.93;45.01;99753.84;2318926;76;50754;-86
2024/04/03 02:31:33;;;;;;;1.20;0.62;;;;;;;20.93;44.97;99754.66;2293019;76;51410;-84
2024/04/03 02:34:35;;;;;;;1.10;0.70;;;;;;;20.93;44.97;99743.08;2317719;76;50745;-84
2024/04/03 02:37:37;;;;;;;1.05;0.65;;;;;;;20.95;44.93;99743.16;2317627;76;50329;-84
2024/04/03 02:40:39;;;;;;;2.87;0.90;;;;;;;20.93;44.94;99737.17;2286943;76;49996;-85
2024/04/03 02:43:41;;;;;;;0.60;0.60;;;;;;;20.95;44.93;99743.16;2318255;76;50743;-84
2024/04/03 02:46:44;;;;;;;0.80;0.60;;;;;;;20.94;44.78;99741.53;2318623;76;50819;-83
2024/04/03 02:49:46;;;;;;;1.12;0.70;;;;;;;20.94;44.84;99736.15;2294912;76;51149;-84
2024/04/03 02:52:48;;;;;;;0.95;0.50;;;;;;;20.94;44.86;99745.56;2318050;76;50742;-84
2024/04/03 02:55:50;;;;;;;0.75;0.60;;;;;;;20.96;44.85;99738.59;2317578;76;50717;-84
2024/04/03 02:58:52;;;;;;;1.00;0.70;;;;;;;20.95;44.86;99734.27;2317918;76;50385;-85
2024/04/03 03:01:54;;;;;;;1.32;0.60;;;;;;;20.96;44.73;99733.22;2319516;74;50646;-83
2024/04/03 03:04:57;;;;;;;0.60;0.50;;;;;;;20.95;44.91;99739.12;2294886;76;49636;-83
2024/04/03 03:07:59;;;;;;;0.62;0.60;;;;;;;20.94;44.93;99728.08;2292701;76;50056;-82
2024/04/03 03:11:02;;;;;;;0.88;0.65;;;;;;;20.94;44.91;99729.42;2317078;76;51555;-81
2024/04/03 03:14:04;;;;;;;1.00;0.50;;;;;;;20.93;44.91;99733.14;2286285;76;51194;-82
2024/04/03 03:17:06;;;;;;;1.05;0.68;;;;;;;20.94;44.95;99733.98;2317121;76;50405;-84
2024/04/03 03:20:08;;;;;;;0.53;0.50;;;;;;;20.93;44.98;99738.52;2319285;76;51021;-84
2024/04/03 03:23:11;;;;;;;2.67;0.72;;;;;;;20.94;44.98;99739.37;2292858;76;50986;-82
2024/04/03 03:26:13;;;;;;;0.70;0.60;;;;;;;20.95;44.76;99733.75;2316362;76;51491;-83
2024/04/03 03:29:15;;;;;;;0.95;0.60;;;;;;;20.94;44.92;99744.22;2292290;76;50077;-84
2024/04/03 03:32:17;;;;;;;0.98;0.75;;;;;;;20.94;44.92;99746.91;2318468;76;50405;-84
2024/04/03 03:35:19;;;;;;;0.62;0.62;;;;;;;20.94;44.94;99756.32;2316567;76;50364;-85
2024/04/03 03:38:21;;;;;;;1.07;0.62;;;;;;;20.94;44.93;99753.62;2292516;76;50042;-85
2024/04/03 03:41:24;;;;;;;1.42;0.70;;;;;;;20.93;44.95;99753.31;2316746;76;50738;-83
2024/04/03 03:44:26;;;;;;;1.45;0.70;;;;;;;20.95;44.85;99760.64;2316651;76;50745;-83
2024/04/03 03:47:28;;;;;;;0.70;0.50;;;;;;;20.95;44.87;99755.27;2316443;76;51546;-85
2024/04/03 03:53:51;;;;;;;1.67;0.60;;;;;;;20.95;44.89;99766.02;2317088;76;22146;-84
2024/04/03 03:56:53;;;;;;;0.95;0.65;;;;;;;20.94;44.88;99765.73;2316752;76;50750;-86
2024/04/03 03:59:56;;;;;;;1.47;0.95;;;;;;;20.92;44.96;99768.34;2316771;76;50376;-84
2024/04/03 04:02:58;;;;;;;1.50;0.82;;;;;;;20.93;44.97;99776.17;2292632;76;52434;-82
2024/04/03 04:06:01;;;;;;;2.72;0.60;;;;;;;20.93;44.97;99776.70;2316721;76;50609;-83
2024/04/03 04:09:03;;;;;;;0.90;0.60;;;;;;;20.92;44.96;99781.25;2316625;76;50700;-85
2024/04/03 04:12:05;;;;;;;1.37;0.70;;;;;;;20.92;44.98;99782.60;2318668;76;50719;-83
2024/04/03 04:15:08;;;;;;;0.53;0.50;;;;;;;20.93;44.97;99789.61;2318380;75;50775;-86
2024/04/03 04:18:10;;;;;;;1.05;0.75;;;;;;;20.91;45.00;99791.72;2292653;76;50124;-84
2024/04/03 04:21:15;;;;;;;1.92;0.95;;;;;;;20.92;44.97;99810.02;2316613;76;51258;-84
2024/04/03 04:24:20;;;;;;;1.17;0.70;;;;;;;20.92;45.00;99818.91;2316899;76;21928;-84
2024/04/03 04:27:21;;;;;;;1.20;0.70;;;;;;;20.91;45.02;99825.83;2316428;76;22203;-84
2024/04/03 04:30:23;;;;;;;1.22;0.90;;;;;;;20.92;45.01;99826.97;2318479;76;51454;-83
2024/04/03 04:33:25;;;;;;;0.70;0.50;;;;;;;20.91;45.04;99820.45;2316627;76;51426;-82
2024/04/03 04:36:27;;;;;;;0.70;0.60;;;;;;;20.91;45.03;99821.30;2316890;76;50656;-84
2024/04/03 04:39:30;;;;;;;1.00;0.60;;;;;;;20.91;45.03;99819.95;2317015;76;50397;-84
2024/04/03 04:42:32;;;;;;;1.60;0.60;;;;;;;20.92;45.04;99831.00;2292382;76;50130;-83
2024/04/03 04:45:34;;;;;;;0.80;0.60;;;;;;;20.92;45.03;99833.70;2290775;76;50717;-85
2024/04/03 04:48:36;;;;;;;1.07;0.60;;;;;;;20.94;44.89;99837.52;2316698;76;51505;-84
2024/04/03 04:51:38;;;;;;;1.15;0.80;;;;;;;20.93;45.00;99834.52;2292697;76;50094;-84
2024/04/03 04:54:41;;;;;;;0.98;0.60;;;;;;;20.93;45.02;99840.70;2317491;76;50781;-87
2024/04/03 04:57:43;;;;;;;1.37;0.75;;;;;;;20.92;45.02;99839.07;2317614;76;50722;-83
2024/04/03 05:00:45;;;;;;;0.85;0.60;;;;;;;20.92;45.06;99832.87;2318198;76;51736;-86
2024/04/03 05:03:47;;;;;;;0.90;0.70;;;;;;;20.92;45.06;99824.28;2318745;76;50763;-85
2024/04/03 05:06:50;;;;;;;1.00;0.80;;;;;;;20.92;45.00;99835.04;2294402;76;50114;-85
2024/04/03 05:09:54;;;;;;;0.70;0.60;;;;;;;20.92;45.02;99844.45;2318896;76;51172;-85
2024/04/03 05:12:56;;;;;;;0.62;0.50;;;;;;;20.91;45.03;99841.47;2320049;74;50717;-83
2024/04/03 05:15:58;;;;;;;0.68;0.55;;;;;;;20.91;45.08;99850.88;2295626;74;50188;-83
2024/04/03 05:19:00;;;;;;;0.82;0.60;;;;;;;20.92;45.08;99852.52;2295489;74;50696;-83
2024/04/03 05:22:05;;;;;;;0.70;0.40;;;;;;;20.94;45.03;99858.51;2320942;74;50626;-83
2024/04/03 05:25:07;;;;;;;1.42;0.50;;;;;;;20.93;45.03;99852.81;2296450;74;21768;-86
2024/04/03 05:28:09;;;;;;;0.68;0.40;;;;;;;20.93;45.06;99847.95;2293602;76;51111;-84
2024/04/03 05:31:18;;;;;;;0.82;0.62;;;;;;;20.92;45.11;99848.48;2293667;76;50105;-83
2024/04/03 05:34:20;;;;;;;1.42;0.70;;;;;;;20.93;45.09;99851.47;2318163;76;51291;-83
2024/04/03 05:37:23;;;;;;;0.70;0.50;;;;;;;20.93;45.10;99850.12;2317640;76;50900;-84
2024/04/03 05:40:25;;;;;;;1.05;0.75;;;;;;;20.93;45.06;99853.34;2293554;76;50985;-83
2024/04/03 05:43:27;;;;;;;1.52;0.62;;;;;;;20.92;45.12;99871.34;2319942;76;50669;-83
2024/04/03 05:46:29;;;;;;;0.98;0.70;;;;;;;20.91;45.09;99869.70;2318288;76;50804;-83
2024/04/03 05:49:31;;;;;;;1.85;0.85;;;;;;;20.92;45.13;99870.00;2317746;76;50728;-83
2024/04/03 05:52:34;;;;;;;0.68;0.60;;;;;;;20.93;45.14;99866.78;2317441;76;50707;-84
2024/04/03 05:55:36;;;;;;;1.45;0.60;;;;;;;20.93;45.15;99872.98;2292249;76;50234;-82
2024/04/03 05:58:39;;;;;;;0.55;0.53;;;;;;;20.92;45.15;99874.03;2316645;76;50737;-83
2024/04/03 06:01:41;;;;;;;1.20;0.50;;;;;;;20.91;45.14;99877.77;2317447;76;51578;-83
2024/04/03 06:04:43;;;;;;;0.88;0.55;;;;;;;20.91;45.18;99875.09;2293781;76;50130;-84
2024/04/03 06:07:45;;;;;;;0.98;0.60;;;;;;;20.92;45.16;99876.72;2317573;76;50968;-83
2024/04/03 06:10:48;;;;;;;0.75;0.60;;;;;;;20.93;45.20;99885.08;2318269;76;50936;-83
2024/04/03 06:13:50;;;;;;;1.10;0.70;;;;;;;20.92;45.25;99882.10;2294785;76;51387;-83
2024/04/03 06:16:52;;;;;;;0.90;0.65;;;;;;;20.92;45.24;99882.10;2319065;76;51673;-83
2024/04/03 06:19:55;;;;;;;0.72;0.50;;;;;;;20.93;45.21;99883.73;2294443;76;50142;-82
2024/04/03 06:22:57;;;;;;;0.60;0.60;;;;;;;20.93;45.24;99878.36;2292353;76;51009;-82
2024/04/03 06:25:59;;;;;;;0.95;0.60;;;;;;;20.93;45.23;99876.20;2316715;76;50514;-83
2024/04/03 06:29:02;;;;;;;1.30;0.60;;;;;;;20.93;45.21;99872.98;2292523;76;52501;-82
2024/04/03 06:32:06;;;;;;;1.22;0.65;;;;;;;20.93;45.23;99873.50;2318735;76;51496;-84
2024/04/03 06:35:10;;;;;;;0.68;0.50;;;;;;;20.92;45.25;99875.38;2292584;76;52207;-83
2024/04/03 06:38:13;;;;;;;0.60;0.42;;;;;;;20.92;45.25;99883.44;2310237;76;51130;-84
2024/04/03 06:41:15;;;;;;;0.95;0.55;;;;;;;20.91;45.27;99883.16;2316000;76;50752;-84
2024/04/03 06:44:18;;;;;;;0.72;0.47;;;;;;;20.92;45.28;99879.41;2315881;76;50673;-82
2024/04/03 06:47:20;;;;;;;0.80;0.60;;;;;;;20.90;45.31;99877.45;2291451;76;50122;-83
2024/04/03 06:50:24;;;;;;;0.62;0.50;;;;;;;20.90;45.33;99884.17;2315787;76;50997;-85
2024/04/03 06:53:26;;;;;;;0.88;0.57;;;;;;;20.92;45.34;99889.34;2315886;76;52478;-83
2024/04/03 06:56:28;;;;;;;1.20;0.70;;;;;;;20.92;45.32;99900.11;2317204;75;50904;-83
2024/04/03 06:59:31;;;;;;;1.42;0.57;;;;;;;20.91;45.31;99898.44;2315855;76;51011;-83
2024/04/03 07:02:33;;;;;;;0.85;0.60;;;;;;;20.91;45.31;99896.59;2291525;76;51003;-83
2024/04/03 07:05:36;;;;;;;0.70;0.60;;;;;;;20.91;45.31;99899.28;2318700;75;51468;-83
2024/04/03 07:08:38;;;;;;;0.50;0.50;;;;;;;20.92;45.31;99907.65;2317728;76;51516;-84
2024/04/03 07:11:40;;;;;;;1.32;0.55;;;;;;;20.92;45.28;99921.62;2293497;76;51038;-84
2024/04/03 07:14:43;;;;;;;0.72;0.60;;;;;;;20.93;45.20;99925.42;2317885;76;51819;-84
2024/04/03 07:17:45;;;;;;;0.80;0.72;;;;;;;20.92;45.27;99922.44;2319445;76;51605;-84
2024/04/03 07:20:57;;;;;;;1.25;0.70;;;;;;;20.93;45.26;99919.22;2317834;75;50716;-84
2024/04/03 07:24:00;;;;;;;0.90;0.68;;;;;;;20.92;45.28;99919.75;2293319;76;51407;-84
2024/04/03 07:27:02;;;;;;;1.27;0.70;;;;;;;20.92;45.31;99924.31;2292902;76;51584;-84
2024/04/03 07:30:04;;;;;;;0.80;0.70;;;;;;;20.92;45.32;99927.81;2292808;76;50692;-84
2024/04/03 07:33:09;;;;;;;1.10;0.68;;;;;;;20.92;45.29;99932.37;2318940;76;50455;-81
2024/04/03 07:36:10;;;;;;;1.47;0.68;;;;;;;20.92;45.27;99939.92;2316837;75;22326;-83
2024/04/03 07:39:13;;;;;;;0.50;0.50;;;;;;;20.93;45.31;99950.97;2316829;76;50731;-83
2024/04/03 07:42:15;;;;;;;1.37;0.70;;;;;;;20.92;45.31;99954.70;2316529;76;52107;-83
2024/04/03 07:45:17;;;;;;;1.00;0.68;;;;;;;20.93;45.32;99950.97;2316099;76;51170;-82
2024/04/03 07:48:19;;;;;;;0.70;0.62;;;;;;;20.93;45.32;99957.69;2291676;76;52369;-82
2024/04/03 07:51:21;;;;;;;1.00;0.60;;;;;;;20.91;45.35;99957.11;2284744;76;51374;-83
2024/04/03 07:54:24;;;;;;;0.60;0.50;;;;;;;20.92;45.38;99959.27;2315426;76;50422;-84
2024/04/03 07:57:26;;;;;;;0.85;0.60;;;;;;;20.93;45.35;99963.59;2315272;76;50389;-84
2024/04/03 08:00:28;;;;;;;1.22;0.60;;;;;;;20.93;45.33;99969.79;2291163;76;49890;-82
2024/04/03 08:03:30;;;;;;;0.72;0.60;;;;;;;20.92;45.35;99970.84;2315292;76;50744;-83
2024/04/03 08:06:32;;;;;;;1.82;0.55;;;;;;;20.93;45.38;99966.28;2316668;75;51499;-82
2024/04/03 08:09:35;;;;;;;1.22;0.55;;;;;;;20.93;45.35;99977.05;2315218;76;50835;-83
2024/04/03 08:12:38;;;;;;;0.88;0.70;;;;;;;20.93;45.40;99982.42;2315939;76;50920;-82
2024/04/03 08:15:40;;;;;;;1.00;0.70;;;;;;;20.93;45.40;99980.55;2292148;76;50329;-83
2024/04/03 08:18:44;;;;;;;1.45;0.70;;;;;;;20.96;45.36;99977.95;2317982;76;50675;-82
2024/04/03 08:21:46;;;;;;;0.93;0.57;;;;;;;20.95;45.39;99982.52;2316257;76;51272;-82
2024/04/03 08:24:48;;;;;;;1.32;0.70;;;;;;;20.95;45.42;99985.73;2291959;76;51682;-81
2024/04/03 08:27:53;;;;;;;0.88;0.62;;;;;;;20.95;45.46;99983.86;2315912;76;51511;-80
2024/04/03 08:30:54;;;;;;;0.78;0.60;;;;;;;20.94;45.45;99982.22;2316311;76;22353;-84
2024/04/03 08:33:58;;;;;;;0.70;0.70;;;;;;;20.95;45.44;99973.09;2316640;76;50752;-84
2024/04/03 08:37:00;;;;;;;1.47;0.70;;;;;;;20.97;45.46;99980.97;2315756;76;51054;-83
2024/04/03 08:40:02;;;;;;;0.60;0.60;;;;;;;20.96;45.46;99990.91;2291909;76;50974;-84
2024/04/03 08:43:04;;;;;;;0.70;0.53;;;;;;;20.97;45.49;100007.86;2317988;76;50757;-84
2024/04/03 08:46:07;;;;;;;0.75;0.60;;;;;;;20.96;45.50;100007.53;2316053;76;50758;-83
2024/04/03 08:49:09;;;;;;;1.17;0.82;;;;;;;20.96;45.49;100012.42;2285052;76;50121;-83
2024/04/03 08:52:11;;;;;;;1.12;0.65;;;;;;;20.96;45.53;100015.11;2316121;76;50681;-82
2024/04/03 08:55:15;;;;;;;0.78;0.50;;;;;;;20.96;45.52;100016.45;2317625;75;50601;-84
2024/04/03 08:58:17;;;;;;;1.67;0.70;;;;;;;20.96;45.51;100012.42;2317910;76;51625;-83
2024/04/03 09:01:20;;;;;;;0.60;0.57;;;;;;;20.96;45.50;100012.91;2315859;76;50813;-82
2024/04/03 09:04:22;;;;;;;0.60;0.60;;;;;;;20.95;45.53;100016.13;2291445;76;49684;-83
2024/04/03 09:07:24;;;;;;;0.85;0.65;;;;;;;20.96;45.50;100019.64;2315538;76;50492;-83
2024/04/03 09:10:43;;;;;;;0.90;0.62;;;;;;;20.95;45.51;100024.20;2315845;76;50704;-82
2024/04/03 09:13:40;;;;;;;2.08;0.80;;;;;;;20.96;45.51;100023.17;2292321;76;22268;-83
2024/04/03 09:16:42;;;;;;;1.65;0.72;;;;;;;20.95;45.54;100021.51;2316217;76;50597;-83
2024/04/03 09:19:54;;;;;;;1.15;0.80;;;;;;;20.95;45.53;100024.20;2315881;76;51460;-83
2024/04/03 09:22:54;;;;;;;1.27;0.80;;;;;;;20.96;45.61;100028.55;2313630;75;22346;-83
2024/04/03 09:25:56;;;;;;;1.32;0.50;;;;;;;20.96;45.69;100027.21;2315519;76;51550;-84
2024/04/03 09:29:02;;;;;;;0.98;0.72;;;;;;;20.95;45.72;100022.85;2291400;76;50037;-83
2024/04/03 09:32:05;;;;;;;1.72;0.80;;;;;;;20.96;45.72;100024.52;2318946;76;51231;-81
2024/04/03 09:35:08;;;;;;;0.88;0.57;;;;;;;20.97;45.70;100024.00;2320684;75;51722;-83
2024/04/03 09:38:11;;;;;;;1.40;0.90;;;;;;;20.96;45.69;100029.91;2295832;75;50113;-81
2024/04/03 09:41:13;;;;;;;0.95;0.60;;;;;;;20.97;45.68;100033.41;2320187;74;50646;-83
2024/04/03 09:44:16;;;;;;;0.53;0.50;;;;;;;20.97;45.68;100033.41;2319677;76;50565;-83
2024/04/03 09:47:19;;;;;;;1.40;0.85;;;;;;;20.96;45.70;100023.17;2318142;76;50796;-83
2024/04/03 09:50:21;;;;;;;0.88;0.65;;;;;;;20.98;45.65;100025.63;2316343;76;50226;-83
2024/04/03 09:53:24;;;;;;;1.85;0.65;;;;;;;20.99;45.62;100029.47;2292021;76;49532;-83
2024/04/03 09:56:26;;;;;;;1.27;0.60;;;;;;;20.98;45.62;100029.14;2315824;76;51599;-83
2024/04/03 09:59:28;;;;;;;0.72;0.60;;;;;;;20.97;45.62;100028.84;2315994;76;50712;-83
2024/04/03 10:02:31;;;;;;;1.30;0.72;;;;;;;20.98;45.62;100030.48;2292005;76;51406;-82
2024/04/03 10:05:37;;;;;;;0.60;0.60;;;;;;;20.98;45.58;100023.77;2316222;76;51685;-83
2024/04/03 10:08:40;;;;;;;0.88;0.70;;;;;;;20.98;45.60;100034.52;2316170;76;51481;-83
2024/04/03 10:11:51;;;;;;;1.70;0.70;;;;;;;20.98;45.60;100034.52;2291701;76;50496;-82
2024/04/03 10:14:56;;;;;;;1.47;0.78;;;;;;;20.99;45.61;100029.96;2316062;76;50488;-83
2024/04/03 10:18:03;;;;;;;0.82;0.60;;;;;;;20.98;45.59;100038.56;2284869;76;49702;-82
2024/04/03 10:21:09;;;;;;;0.72;0.60;;;;;;;20.98;45.60;100039.90;2291816;76;51551;-83
2024/04/03 10:24:11;;;;;;;1.25;0.95;;;;;;;20.97;45.63;100040.95;2316006;76;51489;-83
2024/04/03 10:27:13;;;;;;;0.90;0.65;;;;;;;20.98;45.61;100051.19;2291483;76;50057;-82
2024/04/03 10:30:18;;;;;;;1.20;0.80;;;;;;;20.98;45.66;100052.00;2315935;76;51229;-83
2024/04/03 10:33:20;;;;;;;0.65;0.60;;;;;;;20.98;45.68;100049.84;2316536;76;50810;-84
2024/04/03 10:36:23;;;;;;;1.10;0.72;;;;;;;20.98;45.71;100041.77;2316347;76;50407;-84
2024/04/03 10:39:25;;;;;;;0.82;0.60;;;;;;;20.97;45.70;100046.33;2292462;76;50637;-84
2024/04/03 10:42:30;;;;;;;0.75;0.70;;;;;;;20.98;45.75;100045.80;2292341;76;49461;-84
2024/04/03 10:45:32;;;;;;;2.00;0.82;;;;;;;20.97;45.76;100046.33;2317373;75;50533;-82
2024/04/03 10:48:34;;;;;;;1.25;0.72;;;;;;;20.98;45.77;100043.12;2315637;76;50612;-81
2024/04/03 10:51:36;;;;;;;1.42;0.75;;;;;;;20.97;45.80;100051.71;2284683;76;51505;-82
2024/04/03 10:54:39;;;;;;;0.60;0.60;;;;;;;20.97;45.77;100053.58;2291636;76;50881;-81
2024/04/03 10:57:41;;;;;;;0.85;0.70;;;;;;;20.97;45.71;100051.71;2315564;76;51532;-82
2024/04/03 11:00:48;;;;;;;0.78;0.60;;;;;;;20.97;45.75;100058.44;2315699;76;51523;-81
2024/04/03 11:03:51;;;;;;;1.27;0.70;;;;;;;20.97;45.71;100056.27;2314602;76;22381;-82
2024/04/03 11:06:52;;;;;;;;;;;;;;;20.96;45.76;100058.14;2295060;76;22392;-82
2024/04/03 11:09:54;;;;;;;1.37;0.60;;;;;;;20.96;45.75;100051.91;2316525;76;52029;-83
2024/04/03 11:13:06;;;;;;;0.70;0.60;;;;;;;20.96;45.69;100051.91;2315882;76;50337;-82
2024/04/03 11:16:13;;;;;;;0.60;0.57;;;;;;;20.96;45.69;100055.95;2291474;76;49674;-82
2024/04/03 11:19:13;;;;;;;0.78;0.62;;;;;;;20.96;45.73;100062.67;2292016;76;23238;-81
2024/04/03 11:22:15;;;;;;;1.55;0.70;;;;;;;20.95;45.76;100068.57;2291658;76;50996;-82
2024/04/03 11:25:18;;;;;;;1.12;0.70;;;;;;;20.95;45.79;100067.75;2284925;76;50942;-82
2024/04/03 11:28:20;;;;;;;1.27;0.72;;;;;;;20.94;45.77;100063.42;2291604;76;50610;-82
2024/04/03 11:31:24;;;;;;;0.93;0.80;;;;;;;20.95;45.75;100069.09;2315876;76;50737;-82
2024/04/03 11:34:28;;;;;;;1.30;0.70;;;;;;;20.94;45.71;100072.31;2316178;76;51541;-82
2024/04/03 11:37:30;;;;;;;0.98;0.80;;;;;;;20.94;45.70;100069.62;2317554;76;51294;-82
2024/04/03 11:40:33;;;;;;;1.40;0.90;;;;;;;20.94;45.70;100076.34;2291815;76;49382;-80
2024/04/03 11:43:36;;;;;;;0.70;0.60;;;;;;;20.93;45.67;100081.40;2315852;76;51575;-80
2024/04/03 11:46:38;;;;;;;0.68;0.60;;;;;;;20.94;45.67;100083.59;2315709;76;51261;-81
2024/04/03 11:49:42;;;;;;;1.17;0.68;;;;;;;20.93;45.68;100080.05;2291761;76;52519;-82
2024/04/03 11:52:45;;;;;;;1.27;0.70;;;;;;;20.93;45.63;100082.75;2316177;76;50233;-81
2024/04/03 11:55:47;;;;;;;1.42;0.80;;;;;;;20.94;45.63;100082.25;2317383;75;50365;-82
2024/04/03 11:58:51;;;;;;;1.70;0.70;;;;;;;20.94;45.62;100091.66;2316059;76;50703;-82
2024/04/03 12:01:53;;;;;;;0.90;0.80;;;;;;;20.93;45.63;100094.84;2316125;76;50741;-81
2024/04/03 12:04:55;;;;;;;0.80;0.75;;;;;;;20.93;45.66;100097.54;2284865;76;49512;-82
2024/04/03 12:07:57;;;;;;;1.42;0.70;;;;;;;20.92;45.68;100091.05;2315974;76;50736;-82
2024/04/03 12:10:59;;;;;;;1.22;0.80;;;;;;;20.91;45.73;100091.56;2315773;76;50620;-81
2024/04/03 12:14:02;;;;;;;1.02;0.70;;;;;;;20.93;45.74;100094.03;2291681;76;50252;-81
2024/04/03 12:17:05;;;;;;;1.75;0.75;;;;;;;20.91;45.75;100092.91;2315768;76;50650;-82
2024/04/03 12:20:08;;;;;;;1.30;0.80;;;;;;;20.92;45.78;100101.80;2317789;76;50737;-82
2024/04/03 12:23:10;;;;;;;0.82;0.68;;;;;;;20.92;45.77;100095.08;2291851;76;51369;-82
2024/04/03 12:26:13;;;;;;;0.80;0.60;;;;;;;20.92;45.84;100092.39;2315726;76;51516;-82
2024/04/03 12:29:20;;;;;;;2.25;0.85;;;;;;;20.92;45.91;100090.52;2291334;76;51265;-82
2024/04/03 12:32:19;;;;;;;1.30;0.90;;;;;;;20.93;45.90;100096.19;2314362;76;22416;-82
2024/04/03 12:35:26;;;;;;;1.05;0.80;;;;;;;20.93;45.91;100097.54;2316952;75;51539;-81
2024/04/03 12:38:26;;;;;;;0.88;0.60;;;;;;;20.92;45.85;100099.94;2315345;76;22246;-82
2024/04/03 12:41:28;;;;;;;1.07;0.80;;;;;;;20.93;45.78;100094.84;2315344;76;50375;-81
2024/04/03 12:44:30;;;;;;;0.85;0.65;;;;;;;20.93;45.78;100098.88;2315304;76;50460;-81
2024/04/03 12:47:32;;;;;;;2.47;0.90;;;;;;;20.92;45.79;100094.55;2316977;76;51544;-83
2024/04/03 12:50:34;;;;;;;2.05;0.80;;;;;;;20.92;45.79;100097.24;2315633;76;51289;-82
2024/04/03 12:53:37;;;;;;;1.40;0.82;;;;;;;20.93;45.78;100094.84;2291350;76;52503;-82
2024/04/03 12:56:42;;;;;;;1.40;0.60;;;;;;;20.92;45.78;100095.90;2315348;76;51061;-82
2024/04/03 12:59:44;;;;;;;1.70;0.78;;;;;;;20.93;45.77;100092.16;2316604;76;50766;-83
2024/04/03 13:02:46;;;;;;;1.77;0.70;;;;;;;20.92;45.78;100099.94;2292153;76;51092;-82
2024/04/03 13:05:51;;;;;;;1.47;0.90;;;;;;;20.93;45.76;100098.06;2291888;76;51605;-82
2024/04/03 13:08:54;;;;;;;1.92;1.00;;;;;;;20.92;45.77;100099.94;2292096;76;50075;-82
2024/04/03 13:11:56;;;;;;;1.82;0.85;;;;;;;20.92;45.78;100099.94;2316091;76;51555;-82
2024/04/03 13:14:58;;;;;;;1.80;0.82;;;;;;;20.92;45.77;100101.80;2315939;76;50188;-83
2024/04/03 13:18:01;;;;;;;0.93;0.90;;;;;;;20.93;45.78;100107.48;2285421;76;50889;-83
2024/04/03 13:21:03;;;;;;;2.12;0.80;;;;;;;20.93;45.85;100106.13;2316180;76;50694;-83
2024/04/03 13:24:06;;;;;;;1.15;0.80;;;;;;;20.93;45.83;100110.16;2292065;76;49965;-82
2024/04/03 13:27:08;;;;;;;2.52;0.88;;;;;;;20.93;45.87;100108.82;2284870;76;51023;-82
2024/04/03 13:30:11;;;;;;;2.30;0.90;;;;;;;20.94;45.87;100109.14;2315916;76;51490;-83
2024/04/03 13:33:14;;;;;;;1.45;0.80;;;;;;;20.92;45.86;100106.66;2317521;76;51417;-82
2024/04/03 13:36:16;;;;;;;3.50;0.78;;;;;;;20.93;45.82;100112.86;2315897;76;51682;-83
2024/04/03 13:39:18;;;;;;;1.72;1.00;;;;;;;20.92;45.79;100108.00;2316033;76;50652;-83
2024/04/03 13:42:20;;;;;;;2.35;1.00;;;;;;;20.92;45.80;100107.18;2291688;76;51100;-83
2024/04/03 13:45:23;;;;;;;1.80;1.00;;;;;;;20.92;45.79;100102.63;2315752;76;50394;-84
2024/04/03 13:48:25;;;;;;;1.17;0.98;;;;;;;20.93;45.84;100106.13;2291686;76;49577;-83
2024/04/03 13:51:27;;;;;;;1.70;0.90;;;;;;;20.92;45.84;100109.34;2291660;76;49935;-80
2024/04/03 13:54:30;;;;;;;2.33;1.00;;;;;;;20.92;45.84;100108.00;2315882;76;51147;-82
2024/04/03 13:57:32;;;;;;;1.77;0.90;;;;;;;20.92;45.91;100101.80;2315806;76;50104;-82
2024/04/03 14:00:35;;;;;;;1.67;0.80;;;;;;;20.92;45.97;100101.28;2315762;76;50735;-83
2024/04/03 14:03:37;;;;;;;1.30;0.70;;;;;;;20.93;45.97;100106.95;2315922;76;50420;-82
2024/04/03 14:06:40;;;;;;;1.80;0.80;;;;;;;20.93;45.99;100105.61;2316306;76;52455;-84
2024/04/03 14:09:42;;;;;;;0.85;0.78;;;;;;;20.93;45.95;100101.57;2316899;76;50757;-83
2024/04/03 14:12:44;;;;;;;1.50;0.85;;;;;;;20.93;45.97;100097.54;2317048;76;50676;-84
2024/04/03 14:15:47;;;;;;;1.37;1.02;;;;;;;20.93;45.97;100098.88;2292113;76;50105;-85
2024/04/03 14:18:49;;;;;;;1.27;0.80;;;;;;;20.94;45.96;100097.86;2317278;76;51478;-84